Alameda, California
Current Conditions -  °F | °C
As of 4:53 AM on Monday 22 Dec 2014 (Local Time) from KOAK Reporting Station
Moderate Fog Moderate Fog  
Wind Chill: 12°   Ceiling: 100
Heat Index: 12°   Visibility: 0.12mi
Dew Point: 12°   Wind: 3mph
Humidity: 100%   Direction: 260°W
Pressure: 30.26"   Gusts: NA
Location:  37.77°N, 122.24°W
Report Text: KOAK 221253Z 26003KT 1/8SM FG VV001 12/12 A3026 RMK AO2 SLP248 T01220122
Loading
Personal Weather Stations






























Interactive Weather Map New forecast layout! Learn more

10-Day Weather Forecast

Advertisements
Track Severe Weather on mobile